Marcolorado — V2EY5 — position and weather

sailwx.info

Track history (hours):
 
Tides and Currents Weather Stations Pressure Air Temp Water Temp Dewpoint Dewpoint Depression Visibility Wind Speed Wind Dir Waves Ship Positions

Marcolorado

Last reported at 2015-Mar-23 23:30 UTC. Time now 2015-Apr-28 03:44 UTC.
Position N 31°22' E 032°18'.
Warning: this ship's position is 35 days out of date.

Length 185 m; draft 10 m.

Type: Cargo ship. MMSI: 305599000.

Date/timePositionNaut miles runAvg speedWind from/ knotsBaromVisibWave heightAir tempDewpointWater temp
2015-Mar-23 23:30N 31°22' E 032°18'0 0.0
2015-Mar-23 22:17N 31°22' E 032°18'  
2015-Mar-20 00:12N 36°24' E 014°36'1113.4
2015-Mar-19 23:23N 36°27' E 014°23'3013.4
2015-Mar-19 21:08N 36°36' E 013°47'35112.3
2015-Mar-18 16:30N 37°25' E 006°32'11711.8
2015-Mar-18 06:33N 37°15' E 004°05'1312.3
2015-Mar-18 05:29N 37°14' E 003°49'1212.7
2015-Mar-18 04:32N 37°13' E 003°34'43312.7
2015-Mar-16 18:33N 35°60' W 005°18'14213.6
2015-Mar-16 08:04N 36°21' W 008°12'7212.9
2015-Mar-16 02:32N 36°51' W 009°33'1513.4
2015-Mar-16 01:26N 37°05' W 009°37'1213.3
2015-Mar-16 00:33N 37°17' W 009°40'1413.5
2015-Mar-15 23:33N 37°30' W 009°44'1514.0
2015-Mar-15 22:28N 37°45' W 009°48'1514.0
2015-Mar-15 21:25N 37°59' W 009°53'1213.8
2015-Mar-15 20:33N 38°10' W 009°57'1413.6
2015-Mar-15 19:33N 38°23' W 010°01'1513.3
2015-Mar-15 18:26N 38°38' W 010°04'1613.2
2015-Mar-15 17:14N 38°54' W 010°05'1113.7
2015-Mar-15 16:26N 39°05' W 010°05'1313.7
2015-Mar-15 15:27N 39°18' W 010°05'  
Track history (hours):
 
Tides and Currents Weather Stations Pressure Air Temp Water Temp Dewpoint Dewpoint Depression Visibility Wind Speed Wind Dir Waves Ship Positions

Marcolorado

Last reported at 2015-Mar-23 23:30 UTC. Time now 2015-Apr-28 03:44 UTC.
Position N 31°22' E 032°18'.
Warning: this ship's position is 35 days out of date.

Length 185 m; draft 10 m.

Type: Cargo ship. MMSI: 305599000.

Date/timePositionNaut miles runAvg speedWind from/ knotsBaromVisibWave heightAir tempDewpointWater temp
2015-Mar-23 23:30N 31°22' E 032°18'0 0.0
2015-Mar-23 22:17N 31°22' E 032°18'  
2015-Mar-20 00:12N 36°24' E 014°36'1113.4
2015-Mar-19 23:23N 36°27' E 014°23'3013.4
2015-Mar-19 21:08N 36°36' E 013°47'35112.3
2015-Mar-18 16:30N 37°25' E 006°32'11711.8
2015-Mar-18 06:33N 37°15' E 004°05'1312.3
2015-Mar-18 05:29N 37°14' E 003°49'1212.7
2015-Mar-18 04:32N 37°13' E 003°34'43312.7
2015-Mar-16 18:33N 35°60' W 005°18'14213.6
2015-Mar-16 08:04N 36°21' W 008°12'7212.9
2015-Mar-16 02:32N 36°51' W 009°33'1513.4
2015-Mar-16 01:26N 37°05' W 009°37'1213.3
2015-Mar-16 00:33N 37°17' W 009°40'1413.5
2015-Mar-15 23:33N 37°30' W 009°44'1514.0
2015-Mar-15 22:28N 37°45' W 009°48'1514.0
2015-Mar-15 21:25N 37°59' W 009°53'1213.8
2015-Mar-15 20:33N 38°10' W 009°57'1413.6
2015-Mar-15 19:33N 38°23' W 010°01'1513.3
2015-Mar-15 18:26N 38°38' W 010°04'1613.2
2015-Mar-15 17:14N 38°54' W 010°05'1113.7
2015-Mar-15 16:26N 39°05' W 010°05'1313.7
2015-Mar-15 15:27N 39°18' W 010°05'  

Dump ship's entire track history